Time;durP1;ratioP1;P1;durP2;ratioP2;P2;SDS_P1;SDS_P2;PMS_P1;PMS_P2;Temp;Humidity;BMP_temperature;BMP_pressure;BME280_temperature;BME280_humidity;BME280_pressure;Samples;Min_cycle;Max_cycle;Signal;HPM_P1;HPM_P2
2021/04/08 00:00:26;;;;;;;;;;;13.10;99.90;;;12.45;100.00;100875.97;5075330;28;20362;-64
2021/04/08 00:02:53;;;;;;;;;;;13.00;99.90;;;12.33;100.00;100887.31;5074819;28;19929;-63
2021/04/08 00:05:20;;;;;;;;;;;12.90;99.90;;;12.32;100.00;100876.75;5074770;28;19935;-64
2021/04/08 00:07:47;;;;;;;;;;;12.90;99.90;;;12.31;100.00;100880.59;5074581;28;19924;-63
2021/04/08 00:10:15;;;;;;;;;;;12.80;99.90;;;12.33;100.00;100875.66;5075413;28;19924;-64
2021/04/08 00:12:43;;;;;;;;;;;12.80;99.90;;;12.27;100.00;100880.38;5074773;28;19929;-64
2021/04/08 00:15:13;;;;;;;;;;;12.70;99.90;;;12.27;100.00;100879.59;5074419;28;19928;-63
2021/04/08 00:17:41;;;;;;;;;;;12.70;99.90;;;12.29;100.00;100875.47;5074280;28;19931;-64
2021/04/08 00:20:10;;;;;;;;;;;12.70;99.90;;;12.27;100.00;100879.59;5075043;28;20393;-63
2021/04/08 00:22:37;;;;;;;;;;;12.70;99.90;;;12.20;100.00;100873.72;5074710;28;19931;-64
2021/04/08 00:25:05;;;;;;;;;;;12.60;99.90;;;12.16;100.00;100870.03;5074376;28;19924;-64
2021/04/08 00:27:32;;;;;;;;;;;12.60;99.90;;;12.10;100.00;100872.00;5074013;28;20448;-64
2021/04/08 00:30:01;;;;;;;;;;;12.60;99.90;;;12.05;100.00;100877.53;5074871;28;20344;-64
2021/04/08 00:32:28;;;;;;;;;;;12.50;99.90;;;12.03;100.00;100874.31;5074585;28;19931;-64
2021/04/08 00:34:55;;;;;;;;;;;12.50;99.90;;;11.92;100.00;100870.97;5074231;28;19924;-64
2021/04/08 00:37:22;;;;;;;;;;;12.40;99.90;;;11.94;100.00;100867.97;5074007;28;20279;-63
2021/04/08 00:39:50;;;;;;;;;;;12.40;99.90;;;11.88;100.00;100871.88;5074732;28;19925;-63
2021/04/08 00:42:17;;;;;;;;;;;12.30;99.90;;;11.76;100.00;100869.63;5073145;28;19924;-63
2021/04/08 00:44:44;;;;;;;;;;;12.30;99.90;;;11.92;100.00;100875.56;5074078;28;20370;-63
2021/04/08 00:47:12;;;;;;;;;;;12.40;99.90;;;12.03;100.00;100867.00;5073773;28;19977;-63
2021/04/08 00:49:40;;;;;;;;;;;12.60;99.90;;;11.98;100.00;100866.25;5074072;28;19935;-63
2021/04/08 00:52:07;;;;;;;;;;;12.40;99.90;;;11.78;100.00;100859.28;5074115;28;19928;-64
2021/04/08 00:54:35;;;;;;;;;;;12.20;99.90;;;11.65;100.00;100857.31;5074078;28;19931;-64
2021/04/08 00:57:03;;;;;;;;;;;12.10;99.90;;;11.54;100.00;100858.59;5073583;28;19935;-63
2021/04/08 00:59:31;;;;;;;;;;;12.00;99.90;;;11.53;100.00;100859.66;5074120;28;19925;-63
2021/04/08 01:01:58;;;;;;;;;;;12.00;99.90;;;11.53;100.00;100856.97;5074079;28;20435;-64
2021/04/08 01:04:26;;;;;;;;;;;12.00;99.90;;;11.56;100.00;100853.66;5073723;28;19939;-64
2021/04/08 01:06:54;;;;;;;;;;;12.00;99.90;;;11.45;100.00;100852.22;5073426;28;19924;-64
2021/04/08 01:09:21;;;;;;;;;;;11.90;99.90;;;11.31;100.00;100849.44;5073908;28;20406;-64
2021/04/08 01:11:48;;;;;;;;;;;;;;;11.26;100.00;100848.72;5073680;28;19931;-63
2021/04/08 01:14:16;;;;;;;;;;;11.70;99.90;;;11.31;100.00;100845.91;5073521;28;19970;-63
2021/04/08 01:16:48;;;;;;;;;;;11.70;99.90;;;11.33;100.00;100844.56;5073094;28;19936;-63
2021/04/08 01:19:40;;;;;;;;;;;11.70;99.90;;;11.36;100.00;100843.16;5073683;28;20294;-63
2021/04/08 01:22:15;;;;;;;;;;;11.70;99.90;;;11.30;100.00;100847.84;5073383;28;19936;-63
2021/04/08 01:24:57;;;;;;;;;;;11.70;99.90;;;11.21;100.00;100846.09;5073421;28;19935;-62
2021/04/08 01:27:37;;;;;;;;;;;11.60;99.90;;;11.26;100.00;100838.69;5072983;28;19929;-62
2021/04/08 01:30:38;;;;;;;;;;;11.60;99.90;;;11.33;100.00;100833.72;5073523;28;20027;-62
2021/04/08 01:33:08;;;;;;;;;;;11.70;99.90;;;11.46;100.00;100838.38;5073129;28;20019;-63
2021/04/08 01:35:36;;;;;;;;;;;11.90;99.90;;;11.56;100.00;100832.00;5073050;28;19990;-63
2021/04/08 01:38:09;;;;;;;;;;;12.00;99.90;;;11.51;100.00;100834.78;5072926;28;20345;-63
2021/04/08 01:40:37;;;;;;;;;;;12.00;99.90;;;11.41;100.00;100829.53;5073514;28;19928;-63
2021/04/08 01:43:05;;;;;;;;;;;12.00;99.90;;;11.46;100.00;100830.25;5072848;28;20413;-63
2021/04/08 01:45:32;;;;;;;;;;;12.00;99.90;;;11.42;100.00;100820.31;5072801;28;19924;-62
2021/04/08 01:48:01;;;;;;;;;;;12.00;99.90;;;11.34;100.00;100821.78;5072815;28;19935;-62
2021/04/08 01:50:30;;;;;;;;;;;11.90;99.90;;;11.33;100.00;100822.09;5073129;28;19924;-63
2021/04/08 01:52:57;;;;;;;;;;;11.90;99.90;;;11.26;100.00;100824.34;5072357;28;19924;-62
2021/04/08 01:55:25;;;;;;;;;;;;;;;11.20;100.00;100822.81;5072642;28;19995;-63
2021/04/08 01:57:52;;;;;;;;;;;11.80;99.90;;;11.27;100.00;100821.38;5072583;28;19924;-62
2021/04/08 02:00:21;;;;;;;;;;;11.90;99.90;;;11.31;100.00;100822.38;5073128;28;20332;-63
2021/04/08 02:02:56;;;;;;;;;;;11.90;99.90;;;11.31;100.00;100821.56;5072688;28;19924;-62
2021/04/08 02:05:26;;;;;;;;;;;11.90;99.90;;;11.23;100.00;100819.53;5072273;28;19925;-63
2021/04/08 02:07:55;;;;;;;;;;;11.80;99.90;;;11.17;100.00;100813.38;5072459;28;19935;-63
2021/04/08 02:10:23;;;;;;;;;;;11.70;99.90;;;11.15;100.00;100814.78;5072802;28;19997;-63
2021/04/08 02:12:51;;;;;;;;;;;11.70;99.90;;;11.14;100.00;100815.88;5072676;28;19925;-63
2021/04/08 02:15:20;;;;;;;;;;;11.70;99.90;;;11.18;100.00;100819.63;5072457;28;19932;-62
2021/04/08 02:17:48;;;;;;;;;;;11.70;99.90;;;11.20;100.00;100822.81;5072166;28;19924;-62
2021/04/08 02:20:17;;;;;;;;;;;11.70;99.90;;;11.29;100.00;100813.75;5072707;28;19924;-63
2021/04/08 02:22:47;;;;;;;;;;;11.80;99.90;;;11.26;100.00;100802.69;5072306;28;20290;-62
2021/04/08 02:25:15;;;;;;;;;;;11.80;99.90;;;11.33;100.00;100806.66;5072197;28;19924;-63
2021/04/08 02:27:44;;;;;;;;;;;11.80;99.90;;;11.36;100.00;100808.78;5071956;28;20601;-63
2021/04/08 02:30:14;;;;;;;;;;;11.90;99.90;;;11.33;100.00;100803.94;5072565;28;19931;-63
2021/04/08 02:32:42;;;;;;;;;;;11.90;99.90;;;11.27;100.00;100801.59;5072229;28;19929;-63
2021/04/08 02:35:11;;;;;;;;;;;11.80;99.90;;;11.17;100.00;100799.84;5072110;28;19928;-63
2021/04/08 02:37:38;;;;;;;;;;;11.70;99.90;;;11.10;100.00;100807.53;5071829;28;20405;-62
2021/04/08 02:40:09;;;;;;;;;;;11.70;99.90;;;11.15;100.00;100806.66;5072484;28;19928;-62
2021/04/08 02:42:36;;;;;;;;;;;11.70;99.90;;;11.18;100.00;100798.78;5072374;28;19966;-64
2021/04/08 02:45:05;;;;;;;;;;;11.70;99.90;;;11.18;100.00;100803.38;5071801;28;19932;-64
2021/04/08 02:47:32;;;;;;;;;;;11.70;99.90;;;11.17;100.00;100807.16;5071702;28;19928;-64
2021/04/08 02:50:00;;;;;;;;;;;11.70;99.90;;;11.22;100.00;100801.66;5072155;28;19932;-64
2021/04/08 02:52:29;;;;;;;;;;;11.70;99.90;;;11.24;100.00;100800.31;5071913;28;19924;-64
2021/04/08 02:55:03;;;;;;;;;;;11.70;99.90;;;11.16;100.00;100805.56;5071794;28;19928;-62
2021/04/08 02:57:38;;;;;;;;;;;11.70;99.90;;;11.17;100.00;100796.34;5071606;28;19924;-62
2021/04/08 03:00:08;;;;;;;;;;;11.70;99.90;;;11.16;100.00;100794.72;5072103;28;19924;-63
2021/04/08 03:02:37;;;;;;;;;;;11.70;99.90;;;11.12;100.00;100794.53;5068291;28;19947;-62
2021/04/08 03:05:07;;;;;;;;;;;11.60;99.90;;;11.07;100.00;100804.59;5073559;28;19932;-62
2021/04/08 03:07:38;;;;;;;;;;;11.60;99.90;;;11.02;100.00;100800.09;5075664;28;19924;-62
2021/04/08 03:10:08;;;;;;;;;;;11.60;99.90;;;10.93;100.00;100799.13;5075892;28;19935;-63
2021/04/08 03:12:36;;;;;;;;;;;11.50;99.90;;;10.90;100.00;100797.81;5074754;28;19928;-62
2021/04/08 03:15:05;;;;;;;;;;;11.50;99.90;;;10.93;100.00;100791.81;4171080;28;10000214;-62
2021/04/08 03:17:37;;;;;;;;;;;11.50;99.90;;;10.96;100.00;100793.94;5071840;28;20362;-62
2021/04/08 03:20:07;;;;;;;;;;;11.50;99.90;;;11.00;100.00;100796.06;5074522;28;19925;-63
2021/04/08 03:22:36;;;;;;;;;;;11.60;99.90;;;11.09;100.00;100799.72;5075463;28;19924;-62
2021/04/08 03:25:04;;;;;;;;;;;11.60;99.90;;;11.02;100.00;100794.66;5075331;28;19924;-62
2021/04/08 03:27:32;;;;;;;;;;;11.60;99.90;;;10.96;100.00;100798.56;5075342;28;19925;-63
2021/04/08 03:30:01;;;;;;;;;;;11.50;99.90;;;10.85;100.00;100792.47;5075874;28;19928;-62
2021/04/08 03:32:28;;;;;;;;;;;11.40;99.90;;;10.80;100.00;100803.38;5075244;28;19933;-62
2021/04/08 03:34:55;;;;;;;;;;;11.40;99.90;;;10.84;100.00;100792.78;5075049;28;19950;-63
2021/04/08 03:37:23;;;;;;;;;;;11.40;99.90;;;10.92;100.00;100792.09;5075049;28;19928;-64
2021/04/08 03:39:50;;;;;;;;;;;11.40;99.90;;;10.97;100.00;100800.94;5075824;28;19932;-64
2021/04/08 03:42:18;;;;;;;;;;;11.50;99.90;;;11.01;100.00;100786.84;5075002;28;19944;-62
2021/04/08 03:44:45;;;;;;;;;;;11.60;99.90;;;11.02;100.00;100791.97;5075060;28;19925;-64
2021/04/08 03:47:15;;;;;;;;;;;11.50;99.90;;;11.00;100.00;100791.47;5074948;28;19931;-64
2021/04/08 03:49:43;;;;;;;;;;;11.50;99.90;;;10.91;100.00;100791.28;5075196;28;20389;-62
2021/04/08 03:52:11;;;;;;;;;;;11.50;99.90;;;10.83;100.00;100788.44;5074676;28;19928;-62
2021/04/08 03:54:40;;;;;;;;;;;11.30;99.90;;;10.74;100.00;100799.13;5074692;28;20355;-63
2021/04/08 03:57:11;;;;;;;;;;;11.30;99.90;;;10.66;100.00;100797.06;5074563;28;19935;-62
2021/04/08 03:59:40;;;;;;;;;;;11.20;99.90;;;10.63;100.00;100803.06;5075437;28;19947;-62
2021/04/08 04:02:07;;;;;;;;;;;11.20;99.90;;;10.70;100.00;100798.09;5074592;28;19932;-63
2021/04/08 04:04:38;;;;;;;;;;;11.20;99.90;;;10.80;100.00;100795.25;5074590;28;19928;-63
2021/04/08 04:07:05;;;;;;;;;;;11.30;99.90;;;10.83;100.00;100791.97;5074372;28;20344;-62
2021/04/08 04:09:33;;;;;;;;;;;11.40;99.90;;;10.96;100.00;100799.34;5075210;28;19924;-62
2021/04/08 04:12:01;;;;;;;;;;;11.50;99.90;;;10.94;100.00;100801.53;5074655;28;19958;-63
2021/04/08 04:14:30;;;;;;;;;;;11.50;99.90;;;10.94;100.00;100795.34;5074475;28;19951;-62
2021/04/08 04:16:58;;;;;;;;;;;11.50;99.90;;;10.96;100.00;100793.13;5074042;28;19924;-63
2021/04/08 04:19:26;;;;;;;;;;;11.50;99.90;;;11.02;100.00;100788.44;5074955;28;19924;-63
2021/04/08 04:21:55;;;;;;;;;;;11.60;99.90;;;11.00;100.00;100779.84;5074479;28;20025;-63
2021/04/08 04:24:22;;;;;;;;;;;11.60;99.90;;;10.87;100.00;100787.59;5074184;28;19928;-62
2021/04/08 04:26:49;;;;;;;;;;;11.30;99.90;;;10.71;100.00;100786.19;5074148;28;19924;-63
2021/04/08 04:29:16;;;;;;;;;;;11.30;99.90;;;10.57;100.00;100784.47;5074569;28;19932;-62
2021/04/08 04:31:43;;;;;;;;;;;11.10;99.90;;;10.45;100.00;100784.91;5074097;28;19958;-62
2021/04/08 04:34:11;;;;;;;;;;;11.00;99.90;;;10.46;100.00;100783.78;5073867;28;19931;-62
2021/04/08 04:36:38;;;;;;;;;;;11.00;99.90;;;10.47;100.00;100779.19;5073947;28;19932;-64
2021/04/08 04:39:07;;;;;;;;;;;11.00;99.90;;;10.48;100.00;100778.94;5074209;28;19924;-65
2021/04/08 04:41:35;;;;;;;;;;;11.00;99.90;;;10.53;100.00;100772.63;5074078;28;19929;-63
2021/04/08 04:44:02;;;;;;;;;;;11.10;99.90;;;10.57;100.00;100777.19;5073714;28;20298;-63
2021/04/08 04:46:29;;;;;;;;;;;11.10;99.90;;;10.57;100.00;100777.19;5073862;28;19927;-64
2021/04/08 04:48:57;;;;;;;;;;;11.10;99.90;;;10.58;100.00;100780.69;5073926;28;19924;-64
2021/04/08 04:51:24;;;;;;;;;;;11.10;99.90;;;10.62;100.00;100777.09;5074072;28;19924;-64
2021/04/08 04:53:51;;;;;;;;;;;11.20;99.90;;;10.72;100.00;100773.47;5073361;28;20362;-64
2021/04/08 04:56:19;;;;;;;;;;;11.20;99.90;;;10.68;100.00;100778.66;5073815;28;19924;-64
2021/04/08 04:58:46;;;;;;;;;;;11.20;99.90;;;10.59;100.00;100774.16;5073763;28;19930;-62
2021/04/08 05:01:14;;;;;;;;;;;11.20;99.90;;;10.47;100.00;100773.78;5074108;28;19977;-62
2021/04/08 05:03:41;;;;;;;;;;;11.10;99.90;;;10.48;100.00;100778.94;5073017;28;19924;-62
2021/04/08 05:06:08;;;;;;;;;;;11.00;99.90;;;10.61;100.00;100772.00;5073385;28;20245;-62
2021/04/08 05:08:36;;;;;;;;;;;11.10;99.90;;;10.69;100.00;100780.28;5073706;28;19929;-63
2021/04/08 05:11:03;;;;;;;;;;;11.20;99.90;;;10.68;100.00;100785.94;5073684;28;19924;-62
2021/04/08 05:13:31;;;;;;;;;;;11.20;99.90;;;10.62;100.00;100787.91;5072851;28;19924;-64
2021/04/08 05:15:58;;;;;;;;;;;11.20;99.90;;;10.60;100.00;100776.59;5073512;28;20290;-64
2021/04/08 05:18:26;;;;;;;;;;;11.20;99.90;;;10.59;100.00;100785.81;5073416;28;19928;-64
2021/04/08 05:20:53;;;;;;;;;;;11.20;99.90;;;10.63;100.00;100781.44;5073779;28;19932;-63
2021/04/08 05:23:20;;;;;;;;;;;11.20;99.90;;;10.66;100.00;100788.16;5072575;28;20441;-63
2021/04/08 05:25:47;;;;;;;;;;;11.20;99.90;;;10.72;100.00;100789.69;5073053;28;19924;-62
2021/04/08 05:28:14;;;;;;;;;;;11.20;99.90;;;10.72;100.00;100790.50;5072445;28;20365;-62
2021/04/08 05:30:43;;;;;;;;;;;11.30;99.90;;;10.71;100.00;100802.41;5073528;28;20379;-63
2021/04/08 05:33:11;;;;;;;;;;;11.30;99.90;;;10.72;100.00;100801.31;5072760;28;20298;-62
2021/04/08 05:35:38;;;;;;;;;;;11.30;99.90;;;10.75;100.00;100799.94;5072770;28;19951;-63
2021/04/08 05:38:06;;;;;;;;;;;11.30;99.90;;;10.71;100.00;100805.09;5072688;28;19924;-63
2021/04/08 05:40:33;;;;;;;;;;;11.30;99.90;;;10.62;100.00;100812.25;5073397;28;19925;-64
2021/04/08 05:43:00;;;;;;;;;;;11.20;99.90;;;10.67;100.00;100814.88;5072610;28;19929;-63
2021/04/08 05:45:28;;;;;;;;;;;11.20;99.90;;;10.72;100.00;100822.16;5072542;28;19928;-63
2021/04/08 05:47:57;;;;;;;;;;;11.30;99.90;;;10.78;100.00;100816.38;5072842;28;19931;-62
2021/04/08 05:50:25;;;;;;;;;;;11.40;99.90;;;10.86;100.00;100828.44;5072769;28;19932;-63
2021/04/08 05:52:52;;;;;;;;;;;11.40;99.90;;;10.92;100.00;100824.56;5072400;28;20373;-62
2021/04/08 05:55:19;;;;;;;;;;;11.50;99.90;;;10.94;100.00;100828.59;5072199;28;19924;-63
2021/04/08 05:57:46;;;;;;;;;;;11.50;99.90;;;10.95;100.00;100830.22;5072381;28;19924;-62
2021/04/08 06:00:15;;;;;;;;;;;11.50;99.90;;;10.93;100.00;100837.81;5073025;28;19932;-65
2021/04/08 06:02:42;;;;;;;;;;;11.50;99.90;;;10.91;100.00;100831.88;5072313;28;19982;-63
2021/04/08 06:05:11;;;;;;;;;;;11.50;99.90;;;10.82;100.00;100836.31;5071859;28;19929;-62
2021/04/08 06:07:39;;;;;;;;;;;11.40;99.90;;;10.74;100.00;100842.41;5072310;28;19955;-62
2021/04/08 06:10:07;;;;;;;;;;;11.40;99.90;;;10.60;100.00;100835.28;5072691;28;19932;-62
2021/04/08 06:12:34;;;;;;;;;;;11.20;99.90;;;10.56;100.00;100840.47;5072556;28;19978;-62
2021/04/08 06:15:02;;;;;;;;;;;11.20;99.90;;;10.56;100.00;100851.28;5071850;28;20401;-62
2021/04/08 06:17:29;;;;;;;;;;;11.20;99.90;;;10.62;100.00;100854.72;5071938;28;20365;-62
2021/04/08 06:19:56;;;;;;;;;;;11.20;99.90;;;10.73;100.00;100848.88;5072493;28;19931;-62
2021/04/08 06:22:24;;;;;;;;;;;11.30;99.90;;;10.70;100.00;100857.59;5072112;28;19924;-62
2021/04/08 06:24:51;;;;;;;;;;;11.30;99.90;;;10.61;100.00;100858.53;5071705;28;19932;-62
2021/04/08 06:27:18;;;;;;;;;;;11.20;99.90;;;10.63;100.00;100867.97;5071825;28;19924;-62
2021/04/08 06:29:46;;;;;;;;;;;11.20;99.90;;;10.72;100.00;100863.53;5072350;28;20019;-64
2021/04/08 06:32:13;;;;;;;;;;;11.30;99.90;;;10.97;100.00;100862.41;5071984;28;19994;-62
2021/04/08 06:34:40;;;;;;;;;;;11.50;99.90;;;11.10;100.00;100860.84;5071671;28;19928;-63
2021/04/08 06:37:07;;;;;;;;;;;11.70;99.90;;;11.23;100.00;100855.53;5071380;28;19935;-63
2021/04/08 06:39:36;;;;;;;;;;;11.90;99.90;;;11.43;100.00;100860.63;5072246;28;19933;-63
2021/04/08 06:42:03;;;;;;;;;;;12.20;99.90;;;11.81;100.00;100858.72;5071877;28;20374;-63
2021/04/08 06:44:31;;;;;;;;;;;12.70;99.90;;;12.23;100.00;100865.00;5071797;28;19932;-62
2021/04/08 06:47:00;;;;;;;;;;;12.60;99.90;;;12.58;100.00;100872.47;5071612;28;19975;-62
2021/04/08 06:49:30;;;;;;;;;;;;;;;12.90;100.00;100872.34;5072093;28;19924;-63
2021/04/08 06:51:58;;;;;;;;;;;13.20;99.90;;;13.19;100.00;100868.50;5071758;28;19928;-63
2021/04/08 06:54:27;;;;;;;;;;;13.50;99.90;;;13.45;100.00;100878.47;5071582;28;20045;-63
2021/04/08 06:56:55;;;;;;;;;;;13.70;99.90;;;13.67;100.00;100869.53;5071741;28;19924;-63
2021/04/08 06:59:22;;;;;;;;;;;14.00;99.90;;;13.71;99.98;100875.19;5071818;28;19928;-63
2021/04/08 07:01:50;;;;;;;;;;;14.00;99.90;;;13.70;100.00;100882.50;5071856;28;19929;-63
2021/04/08 07:04:17;;;;;;;;;;;14.00;99.90;;;14.00;98.81;100881.75;5071429;28;19925;-63
2021/04/08 07:06:45;;;;;;;;;;;14.20;99.90;;;13.99;98.16;100884.78;5071707;28;19963;-63
2021/04/08 07:09:13;;;;;;;;;;;14.20;99.90;;;13.76;100.00;100885.91;5071788;28;19924;-63
2021/04/08 07:11:41;;;;;;;;;;;14.30;99.90;;;14.07;99.55;100887.53;5071594;28;20303;-62
2021/04/08 07:14:11;;;;;;;;;;;14.40;99.90;;;14.50;97.76;100884.28;5071303;28;19936;-62
2021/04/08 07:16:38;;;;;;;;;;;14.70;99.90;;;14.75;95.68;100887.09;5071818;28;19925;-63
2021/04/08 07:19:06;;;;;;;;;;;15.00;99.90;;;15.28;93.37;100881.44;5071625;28;19932;-63
2021/04/08 07:21:35;;;;;;;;;;;15.20;99.90;;;15.85;90.49;100873.09;5071679;28;19978;-63
2021/04/08 07:24:14;;;;;;;;;;;16.10;99.90;;;16.36;88.44;100878.41;5071059;28;19935;-63
2021/04/08 07:26:58;;;;;;;;;;;16.50;99.90;;;16.72;84.75;100879.88;5071495;28;19947;-63
2021/04/08 07:29:46;;;;;;;;;;;16.80;99.90;;;16.97;82.26;100892.59;5071671;28;19924;-63
2021/04/08 07:32:15;;;;;;;;;;;16.90;99.90;;;17.22;80.25;100888.91;5071590;28;19931;-62
2021/04/08 07:34:45;;;;;;;;;;;17.10;99.90;;;17.37;78.01;100888.31;5070994;28;19928;-62
2021/04/08 07:37:12;;;;;;;;;;;17.30;99.90;;;17.42;79.14;100881.84;5071257;28;19935;-62
2021/04/08 07:39:42;;;;;;;;;;;17.40;99.90;;;17.44;78.85;100880.38;5071600;28;19948;-64
2021/04/08 07:42:11;;;;;;;;;;;17.50;99.90;;;17.55;77.13;100882.72;5071213;28;19925;-64
2021/04/08 07:44:50;;;;;;;;;;;17.60;99.90;;;17.64;77.70;100883.44;5071118;28;19932;-64
2021/04/08 07:47:20;;;;;;;;;;;17.60;99.90;;;17.63;76.53;100887.34;5071175;28;20279;-63
2021/04/08 07:49:48;;;;;;;;;;;17.60;99.90;;;17.44;78.52;100885.84;5071350;28;19924;-64
2021/04/08 07:52:18;;;;;;;;;;;17.50;99.90;;;17.02;77.49;100886.16;5075156;28;19932;-64
2021/04/08 07:54:57;;;;;;;;;;;17.30;99.90;;;16.92;79.70;100890.06;5074702;28;20015;-65
2021/04/08 07:57:25;;;;;;;;;;;17.10;99.90;;;17.15;80.71;100894.09;5074780;28;20297;-64
2021/04/08 07:59:53;;;;;;;;;;;17.50;99.90;;;17.50;82.32;100889.19;5075145;28;19978;-64
2021/04/08 08:02:24;;;;;;;;;;;17.60;99.90;;;17.60;81.94;100888.00;5074898;28;19952;-64
2021/04/08 08:04:52;;;;;;;;;;;17.90;99.90;;;17.95;80.28;100878.34;5074627;28;19936;-64
2021/04/08 08:07:29;;;;;;;;;;;18.40;99.90;;;18.11;78.71;100883.97;5074903;28;19978;-64
2021/04/08 08:10:01;;;;;;;;;;;18.50;99.90;;;18.48;76.51;100880.16;5074969;28;20397;-65
2021/04/08 08:12:33;;;;;;;;;;;18.80;99.90;;;18.78;74.91;100889.00;5074585;28;19929;-62
2021/04/08 08:15:14;;;;;;;;;;;;;;;18.96;75.36;100888.41;5074429;28;19986;-64
2021/04/08 08:17:42;;;;;;;;;;;19.10;99.90;;;19.22;71.79;100887.22;5074480;28;19931;-64
2021/04/08 08:20:10;;;;;;;;;;;19.30;99.90;;;19.21;71.53;100883.66;5074909;28;19925;-65
2021/04/08 08:22:38;;;;;;;;;;;19.40;99.90;;;19.21;72.62;100883.66;5074277;28;20404;-64
2021/04/08 08:25:09;;;;;;;;;;;19.30;99.90;;;19.24;72.01;100888.47;5074009;28;19932;-62
2021/04/08 08:27:45;;;;;;;;;;;19.30;99.90;;;19.40;72.17;100877.59;5074380;28;20015;-64
2021/04/08 08:30:19;;;;;;;;;;;19.40;99.90;;;19.58;72.83;100878.91;5074748;28;20508;-65
2021/04/08 08:33:15;;;;;;;;;;;19.70;99.90;;;19.63;73.48;100876.75;5074409;28;20282;-65
2021/04/08 08:35:42;;;;;;;;;;;19.90;99.90;;;19.68;70.22;100880.38;5060944;28;20431;-62
2021/04/08 08:38:15;;;;;;;;;;;20.10;99.90;;;19.76;70.76;100880.22;5074132;28;19924;-63
2021/04/08 08:40:45;;;;;;;;;;;20.10;99.90;;;19.67;70.15;100879.56;5074871;28;19928;-63
2021/04/08 08:43:13;;;;;;;;;;;20.10;99.90;;;19.51;69.78;100876.78;5073830;28;19956;-63
2021/04/08 08:45:42;;;;;;;;;;;20.00;99.90;;;19.46;70.76;100879.75;5073815;28;19932;-62
2021/04/08 08:48:11;;;;;;;;;;;19.90;99.90;;;19.51;71.19;100881.47;5073929;28;20387;-62
2021/04/08 08:50:40;;;;;;;;;;;19.90;99.90;;;19.75;70.67;100880.56;5074269;28;19924;-62
2021/04/08 08:53:09;;;;;;;;;;;20.10;99.90;;;19.77;69.34;100886.50;5073711;28;20367;-63
2021/04/08 08:55:37;;;;;;;;;;;20.20;99.90;;;19.81;69.27;100887.41;5073847;28;19928;-62
2021/04/08 08:58:06;;;;;;;;;;;20.20;99.90;;;19.95;68.24;100888.59;5073453;28;19935;-63
2021/04/08 09:00:34;;;;;;;;;;;20.30;99.90;;;20.23;68.73;100879.50;5074252;28;19929;-64
2021/04/08 09:03:04;;;;;;;;;;;20.60;99.90;;;20.40;66.08;100876.44;5072471;28;19955;-63
2021/04/08 09:05:34;;;;;;;;;;;20.80;99.90;;;20.58;66.52;100881.22;5073450;28;19925;-63
2021/04/08 09:08:08;;;;;;;;;;;21.00;99.90;;;20.77;64.02;100880.50;5073632;28;20027;-65
2021/04/08 09:10:39;;;;;;;;;;;21.20;99.90;;;20.97;65.79;100875.88;5073838;28;20336;-64
2021/04/08 09:13:07;;;;;;;;;;;21.30;99.90;;;21.00;64.33;100875.97;5073476;28;19924;-64
2021/04/08 09:15:36;;;;;;;;;;;21.50;99.90;;;21.10;64.29;100883.66;5073360;28;19929;-64
2021/04/08 09:18:07;;;;;;;;;;;21.60;99.90;;;20.79;63.27;100880.97;5073280;28;19928;-64
2021/04/08 09:20:35;;;;;;;;;;;21.40;99.90;;;20.79;63.67;100885.66;5073787;28;19925;-64
2021/04/08 09:23:04;;;;;;;;;;;;;;;20.78;63.51;100887.59;5073276;28;19929;-63
2021/04/08 09:25:32;;;;;;;;;;;21.40;99.90;;;20.91;63.48;100891.84;5073164;28;20393;-63
2021/04/08 09:28:02;;;;;;;;;;;21.40;99.90;;;21.22;62.34;100893.75;5072953;28;19925;-63
2021/04/08 09:30:45;;;;;;;;;;;21.70;99.90;;;21.19;61.32;100889.75;5072989;28;20312;-62
2021/04/08 09:33:13;;;;;;;;;;;21.60;99.90;;;21.07;62.75;100894.53;5072987;28;19969;-63
2021/04/08 09:35:40;;;;;;;;;;;21.60;99.90;;;21.22;62.21;100893.75;5073002;28;19936;-62
2021/04/08 09:38:17;;;;;;;;;;;;;;;21.60;61.96;100890.25;5072787;28;19982;-63
2021/04/08 09:40:52;;;;;;;;;;;21.80;99.90;;;21.87;61.54;100885.66;5073371;28;19978;-64
2021/04/08 09:43:22;;;;;;;;;;;22.20;99.90;;;21.89;59.56;100883.34;5072648;28;19967;-64
2021/04/08 09:45:51;;;;;;;;;;;22.40;99.90;;;22.11;60.40;100875.16;5072880;28;19931;-64
2021/04/08 09:48:22;;;;;;;;;;;22.60;99.90;;;22.26;57.54;100878.94;5072631;28;19932;-64
2021/04/08 09:50:50;;;;;;;;;;;22.70;99.90;;;22.34;58.20;100878.69;5073225;28;19951;-64
2021/04/08 09:53:18;;;;;;;;;;;22.80;99.90;;;22.23;57.22;100874.16;5072509;28;19929;-64
2021/04/08 09:55:54;;;;;;;;;;;22.70;99.90;;;22.14;59.22;100884.63;5072416;28;19928;-64
2021/04/08 09:58:24;;;;;;;;;;;22.60;99.90;;;21.69;59.08;100882.56;5072216;28;20301;-64
2021/04/08 10:00:53;;;;;;;;;;;22.40;99.90;;;21.77;60.79;100890.59;5073133;28;19932;-64
2021/04/08 10:03:30;;;;;;;;;;;22.30;99.90;;;21.82;58.98;100883.22;5072280;28;19928;-64
2021/04/08 10:05:57;;;;;;;;;;;22.30;99.90;;;21.90;60.61;100880.25;5072573;28;19924;-64
2021/04/08 10:08:26;;;;;;;;;;;22.30;99.90;;;22.37;58.42;100879.13;5072123;28;19932;-64
2021/04/08 10:10:54;;;;;;;;;;;22.70;99.90;;;22.05;59.19;100884.06;5072728;28;19978;-64
2021/04/08 10:13:24;;;;;;;;;;;22.60;99.90;;;22.01;58.57;100880.47;5071675;28;20370;-64
2021/04/08 10:15:53;;;;;;;;;;;22.50;99.90;;;22.53;56.97;100871.53;5072364;28;19924;-64
2021/04/08 10:18:22;;;;;;;;;;;22.80;99.90;;;22.72;58.39;100877.78;5072041;28;20399;-62
2021/04/08 10:20:52;;;;;;;;;;;23.20;99.90;;;22.92;55.70;100872.94;5072817;28;19932;-62
2021/04/08 10:23:33;;;;;;;;;;;23.30;99.90;;;23.11;55.10;100878.38;5071947;28;19925;-64
2021/04/08 10:26:02;;;;;;;;;;;23.50;99.90;;;23.03;55.14;100876.69;5072187;28;19924;-64
2021/04/08 10:28:36;;;;;;;;;;;23.60;99.90;;;22.92;53.33;100872.19;5071992;28;19985;-62
2021/04/08 10:31:14;;;;;;;;;;;23.60;99.90;;;22.24;53.45;100878.53;5072380;28;19924;-62
2021/04/08 10:33:42;;;;;;;;;;;23.10;99.90;;;22.00;56.50;100881.63;5071666;28;19928;-65
2021/04/08 10:36:10;;;;;;;;;;;22.60;99.90;;;21.77;55.26;100879.59;5071918;28;19935;-64
2021/04/08 10:38:38;;;;;;;;;;;22.40;99.90;;;21.84;56.26;100878.13;5072104;28;19924;-64
2021/04/08 10:41:05;;;;;;;;;;;22.40;99.90;;;21.71;56.56;100874.72;5072335;28;19925;-62
2021/04/08 10:43:32;;;;;;;;;;;22.30;99.90;;;21.40;57.65;100880.41;5071404;28;19939;-64
2021/04/08 10:46:00;;;;;;;;;;;22.00;99.90;;;21.33;58.58;100889.28;5072019;28;19924;-64
2021/04/08 10:48:30;;;;;;;;;;;21.90;99.90;;;21.68;59.68;100879.00;5071721;28;19929;-64
2021/04/08 10:50:57;;;;;;;;;;;22.10;99.90;;;21.95;58.82;100884.66;5072441;28;19932;-64
2021/04/08 10:53:26;;;;;;;;;;;22.50;99.90;;;21.81;59.64;100882.41;5071406;28;19928;-64
2021/04/08 10:55:54;;;;;;;;;;;22.50;99.90;;;21.72;60.61;100888.16;5071720;28;20027;-64
2021/04/08 10:58:24;;;;;;;;;;;22.40;99.90;;;21.56;61.52;100887.41;5071607;28;20327;-64
2021/04/08 11:00:51;;;;;;;;;;;22.30;99.90;;;21.13;62.45;100888.44;5072188;28;19963;-64
2021/04/08 11:03:18;;;;;;;;;;;22.00;99.90;;;20.73;64.44;100887.88;5071381;28;19928;-64
2021/04/08 11:05:46;;;;;;;;;;;21.60;99.90;;;20.41;66.26;100889.84;5071523;28;19924;-62
2021/04/08 11:08:13;;;;;;;;;;;21.20;99.90;;;20.27;66.00;100889.47;5071572;28;19924;-63
2021/04/08 11:10:42;;;;;;;;;;;21.10;99.90;;;20.30;66.03;100887.97;5072031;28;19935;-63
2021/04/08 11:13:11;;;;;;;;;;;21.00;99.90;;;20.36;64.95;100890.09;5071531;28;19931;-62
2021/04/08 11:15:42;;;;;;;;;;;21.10;99.90;;;20.14;64.83;100887.91;5071262;28;19978;-64